Metar z połowy godziny Komunikat METAR ze strony awiacja.imgw.pl Metar G00 EPSC METAR EPSC 271430Z 10004KT 070V130 CAVOK 03/00 Q0994 =